createdAt,value
2018-12-06T00:00:35.793Z,2.00
2018-12-06T00:03:06.413Z,2.00
2018-12-06T00:05:37.048Z,2.02
2018-12-06T00:08:19.528Z,2.07
2018-12-06T00:10:50.683Z,2.06
2018-12-06T00:13:20.931Z,2.07
2018-12-06T00:15:51.854Z,2.02
2018-12-06T00:18:22.441Z,2.06
2018-12-06T00:20:52.611Z,2.05
2018-12-06T00:23:23.694Z,2.08
2018-12-06T00:25:54.753Z,2.05
2018-12-06T00:28:30.954Z,2.06
2018-12-06T00:31:03.251Z,2.03
2018-12-06T00:33:34.830Z,2.04
2018-12-06T00:36:06.712Z,2.02
2018-12-06T00:38:37.849Z,2.01
2018-12-06T00:41:16.467Z,2.03
2018-12-06T00:43:47.799Z,2.05
2018-12-06T00:46:18.498Z,2.05
2018-12-06T00:48:48.850Z,2.06
2018-12-06T00:51:19.623Z,2.10
2018-12-06T00:53:49.755Z,2.12
2018-12-06T00:56:23.657Z,2.17
2018-12-06T00:58:55.090Z,2.12
2018-12-06T01:01:27.888Z,2.03
2018-12-06T01:03:58.008Z,2.08
2018-12-06T01:06:29.012Z,2.15
2018-12-06T01:09:00.138Z,2.13
2018-12-06T01:11:31.123Z,2.14
2018-12-06T01:14:03.861Z,2.11
2018-12-06T01:16:35.509Z,2.12
2018-12-06T01:19:09.243Z,2.14
2018-12-06T01:21:40.851Z,2.17
2018-12-06T01:24:12.635Z,2.14
2018-12-06T01:26:43.429Z,2.13
2018-12-06T01:29:13.964Z,2.12
2018-12-06T01:31:44.972Z,2.13
2018-12-06T01:34:15.513Z,2.09
2018-12-06T01:36:46.316Z,2.11
2018-12-06T01:39:17.208Z,2.12
2018-12-06T01:41:48.119Z,2.12
2018-12-06T01:44:19.128Z,2.11
2018-12-06T01:46:49.636Z,2.12
2018-12-06T01:49:26.127Z,2.18
2018-12-06T01:51:57.366Z,2.14
2018-12-06T01:54:28.317Z,2.06
2018-12-06T01:56:58.430Z,2.04
2018-12-06T01:59:29.375Z,2.02
2018-12-06T02:02:02.187Z,2.02
2018-12-06T02:04:35.763Z,1.96
2018-12-06T02:18:00.710Z,1.94
2018-12-06T02:23:10.754Z,1.93
2018-12-06T02:25:43.319Z,1.89
2018-12-06T02:28:15.023Z,1.95
2018-12-06T02:30:45.680Z,1.89
2018-12-06T02:33:16.455Z,1.89
2018-12-06T02:35:47.346Z,1.87
2018-12-06T02:38:18.214Z,1.85
2018-12-06T02:40:48.768Z,1.90
2018-12-06T02:43:20.009Z,1.90
2018-12-06T02:45:50.188Z,1.96
2018-12-06T02:48:27.009Z,1.89
2018-12-06T02:50:58.331Z,1.88
2018-12-06T02:53:29.685Z,1.90
2018-12-06T02:56:02.525Z,1.87
2018-12-06T02:58:34.383Z,1.88
2018-12-06T03:01:09.243Z,1.91
2018-12-06T03:03:46.236Z,1.88
2018-12-06T03:06:17.654Z,1.90
2018-12-06T03:08:50.445Z,1.90
2018-12-06T03:11:21.460Z,1.91
2018-12-06T03:13:54.495Z,1.89
2018-12-06T03:16:25.336Z,1.87
2018-12-06T03:18:57.509Z,1.82
2018-12-06T03:21:29.454Z,1.76
2018-12-06T03:24:06.396Z,1.69
2018-12-06T03:26:37.482Z,1.64
2018-12-06T03:29:16.384Z,1.65
2018-12-06T03:31:47.339Z,1.62
2018-12-06T03:34:17.474Z,1.63
2018-12-06T03:36:51.326Z,1.58
2018-12-06T03:39:22.547Z,1.56
2018-12-06T03:41:53.552Z,1.65
2018-12-06T03:44:33.322Z,1.67
2018-12-06T03:47:03.956Z,1.67
2018-12-06T03:49:34.701Z,1.67
2018-12-06T03:52:06.362Z,1.67
2018-12-06T03:54:37.775Z,1.70
2018-12-06T03:57:09.769Z,1.74
2018-12-06T03:59:43.382Z,1.73
2018-12-06T04:02:15.025Z,1.76
2018-12-06T04:04:47.706Z,1.79
2018-12-06T04:07:24.748Z,1.74
2018-12-06T04:09:57.674Z,1.73
2018-12-06T04:12:28.909Z,1.74
2018-12-06T04:14:59.430Z,1.74
2018-12-06T04:17:29.719Z,1.73
2018-12-06T04:20:00.605Z,1.74
2018-12-06T04:22:30.742Z,1.73
2018-12-06T04:25:05.033Z,1.62
2018-12-06T04:27:35.673Z,1.48
2018-12-06T04:30:08.790Z,1.46
2018-12-06T04:32:39.914Z,1.69
2018-12-06T04:35:10.816Z,1.55
2018-12-06T04:37:41.046Z,1.51
2018-12-06T04:40:11.956Z,1.55
2018-12-06T04:42:42.858Z,1.63
2018-12-06T04:45:16.412Z,1.58
2018-12-06T04:47:46.917Z,1.66
2018-12-06T04:50:23.685Z,1.68
2018-12-06T04:52:57.650Z,1.67
2018-12-06T04:55:29.041Z,1.67
2018-12-06T04:58:02.347Z,1.68
2018-12-06T05:00:35.062Z,1.68
2018-12-06T05:03:12.556Z,1.66
2018-12-06T05:05:43.826Z,1.66
2018-12-06T05:08:14.698Z,1.67
2018-12-06T05:10:44.764Z,1.68
2018-12-06T05:13:15.613Z,1.65
2018-12-06T05:15:45.973Z,1.65
2018-12-06T05:18:16.592Z,1.64
2018-12-06T05:20:47.229Z,1.61
2018-12-06T05:23:17.734Z,1.62
2018-12-06T05:25:48.335Z,1.62
2018-12-06T05:28:22.214Z,1.55
2018-12-06T05:30:52.985Z,1.58
2018-12-06T05:33:26.241Z,1.58
2018-12-06T05:35:57.063Z,1.60
2018-12-06T05:38:31.984Z,1.62
2018-12-06T05:41:04.852Z,1.64
2018-12-06T05:43:36.224Z,1.63
2018-12-06T05:46:09.034Z,1.62
2018-12-06T05:48:39.823Z,1.63
2018-12-06T05:51:10.325Z,1.65
2018-12-06T05:53:46.894Z,1.65
2018-12-06T05:56:18.427Z,1.66
2018-12-06T05:58:51.108Z,1.61
2018-12-06T06:01:23.997Z,1.55
2018-12-06T06:03:56.198Z,1.52
2018-12-06T06:06:27.219Z,1.53
2018-12-06T06:09:01.097Z,1.52
2018-12-06T06:11:31.594Z,1.51
2018-12-06T06:14:02.108Z,1.49
2018-12-06T06:16:32.450Z,1.46
2018-12-06T06:19:09.228Z,1.35
2018-12-06T06:21:46.069Z,1.33
2018-12-06T06:24:16.174Z,1.33
2018-12-06T06:26:47.283Z,1.36
2018-12-06T06:29:20.316Z,1.37
2018-12-06T06:31:51.384Z,1.40
2018-12-06T06:34:21.906Z,1.42
2018-12-06T06:36:52.490Z,1.47
2018-12-06T06:39:23.408Z,1.49
2018-12-06T06:41:53.769Z,1.56
2018-12-06T06:44:24.546Z,1.60
2018-12-06T06:46:54.666Z,1.61
2018-12-06T06:49:25.383Z,1.62
2018-12-06T06:51:57.327Z,1.56
2018-12-06T06:54:30.833Z,1.57
2018-12-06T06:57:03.511Z,1.61
2018-12-06T06:59:35.521Z,1.66
2018-12-06T07:02:08.561Z,1.72
2018-12-06T07:04:44.820Z,1.76
2018-12-06T07:07:15.666Z,1.79
2018-12-06T07:09:46.400Z,1.71
2018-12-06T07:12:20.416Z,1.70
2018-12-06T07:14:51.542Z,1.77
2018-12-06T07:17:24.601Z,1.82
2018-12-06T07:19:58.471Z,1.88
2018-12-06T07:22:31.477Z,1.92
2018-12-06T07:25:02.588Z,1.84
2018-12-06T07:27:35.573Z,1.79
2018-12-06T07:30:12.256Z,1.73
2018-12-06T07:32:41.294Z,1.72
2018-12-06T07:35:14.153Z,1.81
2018-12-06T07:37:44.864Z,1.76
2018-12-06T07:40:15.701Z,1.72
2018-12-06T07:42:46.025Z,1.69
2018-12-06T07:45:16.593Z,1.72
2018-12-06T07:47:52.387Z,1.81
2018-12-06T07:50:24.518Z,1.88
2018-12-06T07:52:54.572Z,1.89
2018-12-06T07:55:24.715Z,1.88
2018-12-06T07:57:58.585Z,1.95
2018-12-06T08:00:30.793Z,1.91
2018-12-06T08:03:03.505Z,1.90
2018-12-06T08:05:35.556Z,2.02
2018-12-06T08:08:07.848Z,2.12
2018-12-06T08:10:38.737Z,2.19
2018-12-06T08:13:12.740Z,2.09
2018-12-06T08:15:42.824Z,2.05
2018-12-06T08:18:13.772Z,2.06
2018-12-06T08:20:45.521Z,2.00
2018-12-06T08:23:15.682Z,2.05
2018-12-06T08:25:47.048Z,2.04
2018-12-06T08:28:18.930Z,2.04
2018-12-06T08:30:51.840Z,2.15
2018-12-06T08:33:23.948Z,2.15
2018-12-06T08:35:55.100Z,1.69
2018-12-06T08:38:25.420Z,2.08
2018-12-06T08:40:55.860Z,2.07
2018-12-06T08:43:26.549Z,2.15
2018-12-06T08:45:56.896Z,2.16
2018-12-06T08:48:31.561Z,2.16
2018-12-06T08:51:01.793Z,2.18
2018-12-06T08:53:32.087Z,2.14
2018-12-06T08:56:03.075Z,2.19
2018-12-06T08:58:40.812Z,2.22
2018-12-06T09:01:13.498Z,2.25
2018-12-06T09:03:43.894Z,2.35
2018-12-06T09:06:15.126Z,2.29
2018-12-06T09:08:45.385Z,2.33
2018-12-06T09:11:16.079Z,2.41
2018-12-06T09:13:46.998Z,2.38
2018-12-06T09:16:20.865Z,2.44
2018-12-06T09:18:57.940Z,2.48
2018-12-06T09:21:28.280Z,2.51
2018-12-06T09:24:00.087Z,2.44
2018-12-06T09:26:30.575Z,2.49
2018-12-06T09:29:03.065Z,2.37
2018-12-06T09:31:35.241Z,2.46
2018-12-06T09:34:11.449Z,2.36
2018-12-06T09:36:42.124Z,2.40
2018-12-06T09:39:12.789Z,2.35
2018-12-06T09:41:43.031Z,2.33
2018-12-06T09:44:13.192Z,2.42
2018-12-06T09:46:44.184Z,2.47
2018-12-06T09:49:15.058Z,2.56
2018-12-06T09:51:45.742Z,2.53
2018-12-06T09:54:19.869Z,2.55
2018-12-06T09:56:53.219Z,2.56
2018-12-06T09:59:23.717Z,2.61
2018-12-06T10:01:54.238Z,2.64
2018-12-06T10:04:25.248Z,2.53
2018-12-06T10:07:02.065Z,2.56
2018-12-06T10:09:32.269Z,2.51
2018-12-06T10:12:06.255Z,2.42
2018-12-06T10:18:11.392Z,2.63
2018-12-06T10:24:43.415Z,2.60
2018-12-06T10:27:14.305Z,2.60
2018-12-06T10:29:45.597Z,2.48
2018-12-06T10:32:18.159Z,2.50
2018-12-06T10:34:53.471Z,2.41
2018-12-06T10:37:23.516Z,2.42
2018-12-06T10:39:57.031Z,2.51
2018-12-06T10:42:27.572Z,2.56
2018-12-06T10:44:58.711Z,2.57
2018-12-06T10:47:31.788Z,2.58
2018-12-06T10:50:02.510Z,2.60
2018-12-06T10:52:32.697Z,2.47
2018-12-06T10:55:03.884Z,2.57
2018-12-06T10:57:34.550Z,2.60
2018-12-06T11:00:06.734Z,2.57
2018-12-06T11:02:43.984Z,2.56
2018-12-06T11:05:17.086Z,2.54
2018-12-06T11:07:49.701Z,2.54
2018-12-06T11:10:21.932Z,2.50
2018-12-06T11:12:54.416Z,2.53
2018-12-06T11:15:27.781Z,2.61
2018-12-06T11:17:58.893Z,2.64
2018-12-06T11:20:32.423Z,2.65
2018-12-06T11:23:02.907Z,2.66
2018-12-06T11:25:36.181Z,2.69
2018-12-06T11:28:08.423Z,2.63
2018-12-06T11:30:38.811Z,2.62
2018-12-06T11:33:12.501Z,2.46
2018-12-06T11:35:44.947Z,2.21
2018-12-06T11:38:15.881Z,2.18
2018-12-06T11:40:50.940Z,2.33
2018-12-06T11:43:28.990Z,2.26
2018-12-06T11:46:00.719Z,2.33
2018-12-06T11:48:31.964Z,2.46
2018-12-06T11:51:04.930Z,2.49
2018-12-06T11:53:35.674Z,2.54
2018-12-06T11:56:06.304Z,2.62
2018-12-06T11:58:37.116Z,2.62
2018-12-06T12:01:07.698Z,2.65
2018-12-06T12:03:40.409Z,2.67
2018-12-06T12:06:11.833Z,2.64
2018-12-06T12:08:47.444Z,2.67
2018-12-06T12:11:19.723Z,2.70
2018-12-06T12:13:49.820Z,2.70
2018-12-06T12:20:16.008Z,2.76
2018-12-06T12:22:49.850Z,2.75
2018-12-06T12:25:21.265Z,2.74
2018-12-06T12:27:51.962Z,2.73
2018-12-06T12:30:23.056Z,2.69
2018-12-06T12:32:55.845Z,2.74
2018-12-06T12:35:27.046Z,2.76
2018-12-06T12:41:52.506Z,2.76
2018-12-06T12:44:24.733Z,2.80
2018-12-06T12:46:57.493Z,2.79
2018-12-06T12:49:30.172Z,2.79
2018-12-06T12:52:01.188Z,2.76
2018-12-06T12:54:32.217Z,2.76
2018-12-06T12:57:08.517Z,2.73
2018-12-06T12:59:39.218Z,2.74
2018-12-06T13:02:10.053Z,2.71
2018-12-06T13:04:40.469Z,2.74
2018-12-06T13:07:13.372Z,2.77
2018-12-06T13:09:45.120Z,2.76
2018-12-06T13:12:18.803Z,2.76
2018-12-06T13:14:49.103Z,2.74
2018-12-06T13:17:20.498Z,2.76
2018-12-06T13:19:53.711Z,2.74
2018-12-06T13:22:24.334Z,2.74
2018-12-06T13:24:55.752Z,2.74
2018-12-06T13:27:26.324Z,2.76
2018-12-06T13:29:59.732Z,2.78
2018-12-06T13:32:30.715Z,2.81
2018-12-06T13:35:01.518Z,2.82
2018-12-06T13:37:32.148Z,2.80
2018-12-06T13:40:06.456Z,2.78
2018-12-06T13:42:37.143Z,2.79
2018-12-06T13:45:09.732Z,2.80
2018-12-06T13:47:41.077Z,2.77
2018-12-06T13:50:13.710Z,2.75
2018-12-06T13:52:45.492Z,2.73
2018-12-06T13:55:18.970Z,2.72
2018-12-06T13:57:51.659Z,2.74
2018-12-06T14:00:25.183Z,2.73
2018-12-06T14:02:57.039Z,2.72
2018-12-06T14:05:29.456Z,2.72
2018-12-06T14:08:00.556Z,2.74
2018-12-06T14:10:35.608Z,2.75
2018-12-06T14:13:07.856Z,2.73
2018-12-06T14:15:39.129Z,2.70
2018-12-06T14:18:12.322Z,2.71
2018-12-06T14:20:45.234Z,2.70
2018-12-06T14:23:15.854Z,2.68
2018-12-06T14:25:46.494Z,2.65
2018-12-06T14:28:21.638Z,2.68
2018-12-06T14:30:53.520Z,2.72
2018-12-06T14:33:24.933Z,2.74
2018-12-06T14:35:55.654Z,2.75
2018-12-06T14:38:27.985Z,2.76
2018-12-06T14:40:59.990Z,2.75
2018-12-06T14:43:31.036Z,2.75
2018-12-06T14:49:56.485Z,2.75
2018-12-06T14:52:28.161Z,2.75
2018-12-06T14:55:00.950Z,2.78
2018-12-06T14:57:31.921Z,2.74
2018-12-06T15:00:02.049Z,2.74
2018-12-06T15:02:32.570Z,2.70
2018-12-06T15:05:03.440Z,2.70
2018-12-06T15:07:35.783Z,2.68
2018-12-06T15:10:08.892Z,2.70
2018-12-06T15:12:40.013Z,2.69
2018-12-06T15:15:11.895Z,2.68
2018-12-06T15:17:45.887Z,2.69
2018-12-06T15:20:16.461Z,2.70
2018-12-06T15:22:46.814Z,2.61
2018-12-06T15:25:18.440Z,2.61
2018-12-06T15:27:51.791Z,2.63
2018-12-06T15:30:22.200Z,2.68
2018-12-06T15:32:52.705Z,2.71
2018-12-06T15:35:23.909Z,2.74
2018-12-06T15:37:56.881Z,2.73
2018-12-06T15:40:31.931Z,2.74
2018-12-06T15:43:03.474Z,2.74
2018-12-06T15:45:36.677Z,2.74
2018-12-06T15:48:09.470Z,2.71
2018-12-06T15:50:40.602Z,2.71
2018-12-06T15:53:11.229Z,2.70
2018-12-06T15:55:41.474Z,2.70
2018-12-06T15:58:12.333Z,2.68
2018-12-06T16:00:45.869Z,2.68
2018-12-06T16:03:16.056Z,2.67
2018-12-06T16:05:46.736Z,2.68
2018-12-06T16:08:18.309Z,2.72
2018-12-06T16:10:51.182Z,2.75
2018-12-06T16:13:29.700Z,2.78
2018-12-06T16:16:01.369Z,2.78
2018-12-06T16:18:32.159Z,2.78
2018-12-06T16:21:05.108Z,2.78
2018-12-06T16:23:36.181Z,2.79
2018-12-06T16:26:07.197Z,2.77
2018-12-06T16:28:40.296Z,2.78
2018-12-06T16:31:13.176Z,2.76
2018-12-06T16:33:45.851Z,2.73
2018-12-06T16:36:19.143Z,2.73
2018-12-06T16:38:52.130Z,2.73
2018-12-06T16:41:25.118Z,2.74
2018-12-06T16:44:06.036Z,2.72
2018-12-06T16:46:39.689Z,2.73
2018-12-06T16:49:12.504Z,2.74
2018-12-06T16:51:45.741Z,2.73
2018-12-06T16:57:54.273Z,2.71
2018-12-06T17:00:26.610Z,2.71
2018-12-06T17:02:58.323Z,2.71
2018-12-06T17:05:33.953Z,2.73
2018-12-06T17:08:10.887Z,2.76
2018-12-06T17:10:47.539Z,2.76
2018-12-06T17:13:20.990Z,2.77
2018-12-06T17:15:52.024Z,2.78
2018-12-06T17:18:23.753Z,2.80
2018-12-06T17:20:56.220Z,2.79
2018-12-06T17:23:29.981Z,2.82
2018-12-06T17:29:36.798Z,2.78
2018-12-06T17:32:07.537Z,2.79
2018-12-06T17:34:40.871Z,2.81
2018-12-06T17:37:11.259Z,2.81
2018-12-06T17:39:42.117Z,2.84
2018-12-06T17:42:12.872Z,2.81
2018-12-06T17:44:46.541Z,2.79
2018-12-06T17:47:19.903Z,2.81
2018-12-06T17:49:54.911Z,2.82
2018-12-06T17:52:30.130Z,2.84
2018-12-06T17:55:00.689Z,2.84
2018-12-06T17:57:31.874Z,2.84
2018-12-06T18:00:02.309Z,2.88
2018-12-06T18:02:32.827Z,2.90
2018-12-06T18:05:07.025Z,2.89
2018-12-06T18:07:37.827Z,2.91
2018-12-06T18:10:12.858Z,2.92
2018-12-06T18:12:45.977Z,2.94
2018-12-06T18:18:03.123Z,2.97
2018-12-06T18:20:35.455Z,2.99
2018-12-06T18:23:10.678Z,3.00
2018-12-06T18:25:44.311Z,3.03
2018-12-06T18:28:15.192Z,3.05
2018-12-06T18:30:50.257Z,3.07
2018-12-06T18:33:23.763Z,3.08
2018-12-06T18:35:56.471Z,3.11
2018-12-06T18:38:29.212Z,3.13
2018-12-06T18:41:00.479Z,3.12
2018-12-06T18:43:39.947Z,3.14
2018-12-06T18:46:11.470Z,3.14
2018-12-06T18:48:49.496Z,3.17
2018-12-06T18:51:20.226Z,3.17
2018-12-06T18:53:51.446Z,3.17
2018-12-06T18:56:24.199Z,3.19
2018-12-06T18:58:54.824Z,3.20
2018-12-06T19:01:25.771Z,3.24
2018-12-06T19:07:58.192Z,3.26
2018-12-06T19:10:29.626Z,3.27
2018-12-06T19:13:03.649Z,3.27
2018-12-06T19:15:53.697Z,3.32
2018-12-06T19:18:29.578Z,3.31
2018-12-06T19:21:01.209Z,3.31
2018-12-06T19:23:31.948Z,3.34
2018-12-06T19:26:04.522Z,3.34
2018-12-06T19:28:37.261Z,3.36
2018-12-06T19:31:09.578Z,3.37
2018-12-06T19:33:40.997Z,3.35
2018-12-06T19:36:18.841Z,3.39
2018-12-06T19:39:05.710Z,3.39
2018-12-06T19:41:36.281Z,3.42
2018-12-06T19:44:08.224Z,3.39
2018-12-06T19:46:39.343Z,3.39
2018-12-06T19:49:10.338Z,3.40
2018-12-06T19:51:45.098Z,3.50
2018-12-06T19:54:22.305Z,3.44
2018-12-06T19:57:00.208Z,3.44
2018-12-06T19:59:33.940Z,3.44
2018-12-06T20:02:04.310Z,3.44
2018-12-06T20:05:05.657Z,3.43
2018-12-06T20:07:40.131Z,3.45
2018-12-06T20:10:13.895Z,3.46
2018-12-06T20:12:55.263Z,3.48
2018-12-06T20:15:31.351Z,3.48
2018-12-06T20:18:02.520Z,3.49
2018-12-06T20:20:33.610Z,3.52
2018-12-06T20:23:07.774Z,3.52
2018-12-06T20:25:38.819Z,3.51
2018-12-06T20:28:11.906Z,3.51
2018-12-06T20:30:44.276Z,3.53
2018-12-06T20:33:20.512Z,3.55
2018-12-06T20:35:52.259Z,3.56
2018-12-06T20:38:26.617Z,3.58
2018-12-06T20:40:57.402Z,3.66
2018-12-06T20:43:28.987Z,3.62
2018-12-06T20:46:01.232Z,3.63
2018-12-06T20:48:32.893Z,3.63
2018-12-06T20:51:06.824Z,3.64
2018-12-06T20:53:43.513Z,3.64
2018-12-06T20:56:18.136Z,3.68
2018-12-06T20:58:58.350Z,3.67
2018-12-06T21:01:30.350Z,3.71
2018-12-06T21:04:04.340Z,3.68
2018-12-06T21:06:42.398Z,3.69
2018-12-06T21:09:18.764Z,3.70
2018-12-06T21:11:53.177Z,3.72
2018-12-06T21:14:29.164Z,3.70
2018-12-06T21:17:10.669Z,3.71
2018-12-06T21:19:42.623Z,3.73
2018-12-06T21:22:15.136Z,3.72
2018-12-06T21:24:51.561Z,3.77
2018-12-06T21:27:23.984Z,3.77
2018-12-06T21:30:00.271Z,3.80
2018-12-06T21:32:35.189Z,3.78
2018-12-06T21:35:08.767Z,3.80
2018-12-06T21:37:40.421Z,3.76
2018-12-06T21:40:13.912Z,3.78
2018-12-06T21:42:48.992Z,3.74
2018-12-06T21:45:23.694Z,3.72
2018-12-06T21:48:03.346Z,3.71
2018-12-06T21:50:40.016Z,3.72
2018-12-06T21:53:20.910Z,3.76
2018-12-06T21:55:52.948Z,3.80
2018-12-06T21:58:25.474Z,3.81
2018-12-06T22:01:22.219Z,3.81
2018-12-06T22:03:54.684Z,3.80
2018-12-06T22:06:29.157Z,3.83
2018-12-06T22:09:03.568Z,3.82
2018-12-06T22:11:43.210Z,3.89
2018-12-06T22:14:14.815Z,3.91
2018-12-06T22:16:52.453Z,3.21
2018-12-06T22:19:23.213Z,3.85
2018-12-06T22:21:57.468Z,3.82
2018-12-06T22:24:33.147Z,3.79
2018-12-06T22:27:04.692Z,3.79
2018-12-06T22:29:43.770Z,3.80
2018-12-06T22:32:16.937Z,3.81
2018-12-06T22:34:48.554Z,3.80
2018-12-06T22:37:21.837Z,3.81
2018-12-06T22:39:58.095Z,3.79
2018-12-06T22:42:30.395Z,3.81
2018-12-06T22:45:14.758Z,3.81
2018-12-06T22:51:29.014Z,3.84
2018-12-06T22:54:00.199Z,3.83
2018-12-06T22:56:31.791Z,3.85
2018-12-06T22:59:11.095Z,3.83
2018-12-06T23:01:50.599Z,3.82
2018-12-06T23:04:26.361Z,3.83
2018-12-06T23:07:28.904Z,3.84
2018-12-06T23:14:06.761Z,3.88
2018-12-06T23:16:38.796Z,3.88
2018-12-06T23:19:09.978Z,3.89
2018-12-06T23:21:52.253Z,3.91
2018-12-06T23:24:29.503Z,3.95
2018-12-06T23:27:08.361Z,3.95
2018-12-06T23:29:42.541Z,3.97
2018-12-06T23:32:17.035Z,4.04
2018-12-06T23:35:08.064Z,4.04
2018-12-06T23:37:39.869Z,4.05
2018-12-06T23:40:18.577Z,4.07
2018-12-06T23:42:54.918Z,4.11
2018-12-06T23:45:33.978Z,4.12
2018-12-06T23:48:17.347Z,4.15
2018-12-06T23:50:49.943Z,4.18
2018-12-06T23:53:33.883Z,4.20
2018-12-06T23:56:05.563Z,4.22
2018-12-06T23:58:40.900Z,4.25
